DTTX/SFA METAR and TAF weather

Enter ICAO airport designator
Station Type Date Time Source
DTTX METAR 2020/07/11 21:00 UTC NOAA

DTTX 112100Z 11006KT CAVOK 26/22 Q1015 NOSIG


Station Type Date Time Source
DTTX Decoded METAR 2020/07/11 21:00 UTC NOAA

Sfax El-Maou, Tunisia (DTTX) 34-43N 010-41E 23M
Jul 11, 2020 - 05:00 PM EDT / 2020.07.11 2100 UTC
Wind: from the ESE (110 degrees) at 7 MPH (6 KT):0
Visibility: greater than 7 mile(s):0
Temperature: 78 F (26 C)
Dew Point: 71 F (22 C)
Relative Humidity: 78%
Pressure (altimeter): 29.97 in. Hg (1015 hPa)
ob: DTTX 112100Z 11006KT CAVOK 26/22 Q1015 NOSIG
cycle: 21

Station Type Date Time Source
DTTX TAF 2020/07/11 18:06 UTC NOAA

TAF DTTX 111700Z 1118/1218 12010KT 9999 FEW020 PROB30
TEMPO 1118/1121 VRB15G27KT -TSRA FEW026CB
BECMG 1121/1123 20003KT
BECMG 1210/1212 14010KT

Example: see airport list